Погода Ольховскийна неделю

Ростовская область, Россия

22 - 28 мая
  • 22мая
    Сегодня
    +12°
    +29°
    Практически безоблачно
    ВремяПогодаТемператураВлажностьДавлениеВетер, м/сВероятность осадков
    00:00Ясно и безоблачно+15°C59 %758 мм1.9 м/с2 %
    03:00Ясно и безоблачно+12°C70 %758 мм2.1 м/с2 %
    06:00Ясно и безоблачно+13°C63 %758 мм2.2 м/с2 %
    09:00Ясно и безоблачно+25°C30 %758 мм2.1 м/с2 %
    12:00Ясно и безоблачно+28°C22 %758 мм3.4 м/с2 %
    15:00Практически безоблачно+29°C21 %756 мм3.0 м/с2 %
    18:00Ясно и безоблачно+27°C23 %756 мм3.0 м/с2 %
    21:00Ясно и безоблачно+19°C37 %756 мм2.3 м/с2 %
  • 23мая
    Четверг
    +14°
    +30°
    Ясно и безоблачно
    ВремяПогодаТемператураВлажностьДавлениеВетер, м/сВероятность осадков
    00:00Ясно и безоблачно+15°C48 %756 мм2.0 м/с2 %
    03:00Ясно и безоблачно+12°C59 %756 мм2.0 м/с2 %
    06:00Ясно и безоблачно+14°C55 %756 мм2.7 м/с2 %
    09:00Ясно и безоблачно+26°C33 %756 мм2.9 м/с2 %
    12:00Ясно и безоблачно+29°C22 %756 мм5.0 м/с2 %
    15:00Ясно и безоблачно+29°C21 %755 мм4.0 м/с2 %
    18:00Ясно и безоблачно+28°C23 %755 мм4.4 м/с2 %
    21:00Ясно и безоблачно+21°C39 %756 мм5.9 м/с2 %
  • 24мая
    Пятница
    +11°
    +27°
    Ясно и безоблачно
    ВремяПогодаТемператураВлажностьДавлениеВетер, м/сВероятность осадков
    00:00Ясно и безоблачно+17°C51 %757 мм4.7 м/с2 %
    03:00Ясно и безоблачно+16°C59 %757 мм4.6 м/с2 %
    06:00Ясно и безоблачно+16°C66 %758 мм5.8 м/с2 %
    09:00Ясно и безоблачно+21°C43 %759 мм7.3 м/с2 %
    12:00Ясно и безоблачно+25°C34 %760 мм8.1 м/с2 %
    15:00Ясно и безоблачно+26°C27 %760 мм7.7 м/с2 %
    18:00Ясно и безоблачно+24°C25 %760 мм7.4 м/с2 %
    21:00Ясно и безоблачно+19°C22 %762 мм6.0 м/с2 %
  • 25мая
    Суббота
    +12°
    +25°
    Ясно и безоблачно
    ВремяПогодаТемператураВлажностьДавлениеВетер, м/сВероятность осадков
    00:00Ясно и безоблачно+15°C25 %762 мм6.2 м/с2 %
    03:00Ясно и безоблачно+13°C29 %762 мм5.9 м/с2 %
    06:00Ясно и безоблачно+12°C34 %763 мм6.2 м/с2 %
    09:00Ясно и безоблачно+18°C29 %763 мм6.9 м/с2 %
    12:00Ясно и безоблачно+23°C22 %763 мм6.9 м/с2 %
    15:00Ясно и безоблачно+25°C17 %761 мм7.2 м/с2 %
    18:00Ясно и безоблачно+23°C18 %760 мм6.8 м/с2 %
    21:00Ясно и безоблачно+18°C23 %761 мм5.2 м/с2 %
Мы используем cookies
Соглашаюсь